• Join FlightAware (Why Join?)
  • Login
  • US Flag 
09:32PM EDT


 

Airport Tracker/Info


-or-


 

Live Flight TrackerFlight Track Log ✈ UAL1170 ✈ 28-Apr-2012 ✈ KLAX - KCLE

Flight Track Log - Related Links

Times and Time Zones

All times are in EDT time to prevent confusion due to time zone crossing. See the UAL1170 flight status page for this flight to view local times or setup timezone preferences in your user account.

Time Position Orientation Groundspeed Altitude Reporting Facility
EDT Latitude Longitude Course Direction KTS MPH feet Rate Location/Type
09:46AM 33.9448 -118.3677 248° West  Level FlightAware Approximate
09:47AM 33.9333 -118.5285 145° Southeast  Level FlightAware Approximate
09:48AM 33.9000 -118.5000 199° South 242 278 4,000  Level Southern California TRACON
09:49AM 33.8197 -118.5339 176° South 280 322 7,400 2,940 Climbing Los Angeles Center
09:50AM 33.7342 -118.5267 138° Southeast 286 329 10,400 3,060 Climbing Los Angeles Center
09:51AM 33.6708 -118.4575 107° East 284 327 13,600 2,520 Climbing Los Angeles Center
09:52AM 33.6417 -118.3444 90° East 287 330 15,500 2,100 Climbing Los Angeles Center
09:53AM 33.6419 -118.2122 90° East 333 383 17,800 2,460 Climbing Los Angeles Center
09:54AM 33.6419 -118.0747 89° East 373 429 20,500 2,400 Climbing Los Angeles Center
09:55AM 33.6442 -117.9303 91° East 406 467 22,700 1,920 Climbing Los Angeles Center
09:56AM 33.6422 -117.7781 89° East 418 481 24,400 2,040 Climbing Los Angeles Center
09:57AM 33.6442 -117.6308 90° East 439 505 26,800 2,040 Climbing Los Angeles Center
09:58AM 33.6439 -117.4761 90° East 454 522 28,500 1,620 Climbing Los Angeles Center
09:59AM 33.6436 -117.3139 91° East 467 537 30,100 1,500 Climbing Los Angeles Center
10:00AM 33.6408 -117.1392 81° East 478 550 31,500 1,500 Climbing Los Angeles Center
10:01AM 33.6611 -116.9772 75° East 478 550 33,200 1,560 Climbing Los Angeles Center
10:02AM 33.6953 -116.8203 77° East 478 550 34,700 1,380 Climbing Los Angeles Center
10:03AM 33.7253 -116.6658 66° East 483 556 36,000 1,260 Climbing Los Angeles Center
10:04AM 33.7803 -116.5186 65° Northeast 477 549 37,300 1,200 Climbing Los Angeles Center
10:05AM 33.8350 -116.3789 65° Northeast 470 541 38,400 840 Climbing Los Angeles Center
10:06AM 33.8894 -116.2389 65° Northeast 459 528 39,000 240 Climbing Los Angeles Center
10:07AM 33.9436 -116.0986 64° Northeast 459 528 38,900  Descending Los Angeles Center
10:08AM 34.0000 -115.9583 66° East 459 528 39,000  Climbing Los Angeles Center
10:09AM 34.0539 -115.8128 65° Northeast 459 528 39,000  Level Los Angeles Center
10:10AM 34.1097 -115.6672 65° Northeast 464 534 39,000  Level Los Angeles Center
10:11AM 34.1656 -115.5236 64° Northeast 464 534 39,000  Level Los Angeles Center
10:12AM 34.2233 -115.3775 67° East 464 534 39,000  Level Los Angeles Center
10:13AM 34.2764 -115.2289 64° Northeast 464 534 39,000  Level Los Angeles Center
10:14AM 34.3339 -115.0847 66° East 469 540 39,000 -60 Level Los Angeles Center
10:15AM 34.3867 -114.9381 66° East 469 540 38,900  Descending Los Angeles Center
10:16AM 34.4417 -114.7914 65° Northeast 469 540 39,000  Climbing Los Angeles Center
10:17AM 34.4964 -114.6492 66° East 462 532 39,000  Level Los Angeles Center
10:19AM 34.6058 -114.3536 66° East 476 548 39,000  Level Albuquerque Center
10:20AM 34.6603 -114.2067 65° Northeast 476 548 39,000  Level Albuquerque Center
10:21AM 34.7167 -114.0572 67° East 476 548 39,000  Level Albuquerque Center
10:22AM 34.7689 -113.9072 65° Northeast 476 548 39,000  Level Albuquerque Center
10:23AM 34.8250 -113.7575 66° East 476 548 39,000  Level Albuquerque Center
10:24AM 34.8789 -113.6072 66° East 481 554 39,000  Level Albuquerque Center
10:26AM 34.9528 -113.3994 67° East 467 537 39,000  Level Los Angeles Center
10:27AM 35.0056 -113.2456 67° East 472 543 39,000  Level Los Angeles Center
10:28AM 35.0603 -113.0914 67° East 483 556 39,000  Level Los Angeles Center
10:29AM 35.1147 -112.9369 66° East 483 556 39,000  Level Los Angeles Center
10:30AM 35.1669 -112.7936 67° East 500 575 39,000  Level Albuquerque Center
10:31AM 35.2219 -112.6372 67° East 506 582 39,000  Level Albuquerque Center
10:32AM 35.2767 -112.4803 66° East 506 582 39,000  Level Albuquerque Center
10:33AM 35.3333 -112.3236 68° East 506 582 39,000  Level Albuquerque Center
10:34AM 35.3858 -112.1636 66° East 506 582 39,000  Level Albuquerque Center
10:35AM 35.4444 -112.0014 67° East 506 582 39,000  Level Albuquerque Center
10:36AM 35.4983 -111.8439 67° East 506 582 39,000  Level Albuquerque Center
10:37AM 35.5522 -111.6861 68° East 506 582 39,000  Level Albuquerque Center
10:38AM 35.6036 -111.5281 67° East 506 582 39,000  Level Albuquerque Center
10:39AM 35.6839 -111.2906 68° East 499 574 39,000  Level Denver Center
10:40AM 35.7372 -111.1300 68° East 500 575 39,000  Level Denver Center
10:41AM 35.7897 -110.9700 68° East 499 574 39,000  Level Denver Center
10:42AM 35.8433 -110.8097 68° East 499 574 39,000  Level Denver Center
10:43AM 35.9064 -110.6178 68° East 498 573 39,000  Level Denver Center
10:44AM 35.9581 -110.4586 68° East 495 570 39,000  Level Denver Center
10:45AM 36.0094 -110.3006 68° East 492 566 39,000  Level Denver Center
10:46AM 36.0622 -110.1414 69° East 493 567 39,000  Level Denver Center
10:47AM 36.1108 -109.9858 68° East 493 567 39,000  Level Denver Center
10:48AM 36.1667 -109.8100 68° East 491 565 39,000  Level Denver Center
10:50AM 36.2161 -109.6592 69° East 492 566 39,000  Level Denver Center
10:51AM 36.2728 -109.4800 69° East 496 571 39,000  Level Denver Center
10:52AM 36.3211 -109.3261 68° East 497 572 39,000  Level Denver Center
10:53AM 36.3706 -109.1717 69° East 498 573 39,000  Level Denver Center
10:54AM 36.4267 -108.9900 69° East 500 575 39,000  Level Denver Center
10:55AM 36.4742 -108.8344 69° East 500 575 39,000  Level Denver Center
10:56AM 36.5294 -108.6539 69° East 498 573 39,000  Level Denver Center
10:57AM 36.5769 -108.4989 69° East 498 573 39,000  Level Denver Center
10:58AM 36.6311 -108.3200 69° East 495 570 39,000  Level Denver Center
10:59AM 36.6781 -108.1661 69° East 495 570 39,000  Level Denver Center
11:00AM 36.7322 -107.9861 70° East 496 571 39,000  Level Denver Center
11:01AM 36.7783 -107.8300 70° East 499 574 39,000  Level Denver Center
11:02AM 36.8322 -107.6475 70° East 501 577 39,000  Level Denver Center
11:03AM 36.8789 -107.4911 70° East 502 578 39,000  Level Denver Center
11:04AM 36.9325 -107.3064 70° East 505 581 39,000  Level Denver Center
11:05AM 36.9789 -107.1481 70° East 506 582 39,000  Level Denver Center
11:06AM 37.0331 -106.9628 71° East 508 585 39,000  Level Denver Center
11:07AM 37.0781 -106.8031 70° East 508 585 39,000  Level Denver Center
11:08AM 37.1325 -106.6181 70° East 508 585 39,000  Level Denver Center
11:09AM 37.1778 -106.4589 71° East 506 582 39,000  Level Denver Center
11:10AM 37.2292 -106.2736 70° East 504 580 39,000  Level Denver Center
11:11AM 37.2742 -106.1156 71° East 503 579 39,000  Level Denver Center
11:13AM 37.3345 -105.8940 71° East 504 580 39,000  Level FlightAware ADS-B
11:13AM 37.3573 -105.8120 71° East 506 582 39,000  Level FlightAware ADS-B
11:14AM 37.3821 -105.7230 71° East 507 583 39,000  Level FlightAware ADS-B
11:14AM 37.4161 -105.5990 71° East 508 585 39,000  Level FlightAware ADS-B
11:15AM 37.4429 -105.5010 71° East 509 586 39,000  Level FlightAware ADS-B
11:15AM 37.4675 -105.4110 71° East 509 586 39,000  Level FlightAware ADS-B
11:16AM 37.4909 -105.3250 71° East 511 588 39,000  Level FlightAware ADS-B
11:16AM 37.5147 -105.2360 71° East 513 590 39,000  Level FlightAware ADS-B
11:17AM 37.5383 -105.1490 71° East 513 590 39,000  Level FlightAware ADS-B
11:17AM 37.5620 -105.0610 71° East 511 588 39,000  Level FlightAware ADS-B
11:18AM 37.5947 -104.9390 71° East 508 585 39,000  Level FlightAware ADS-B
11:19AM 37.6177 -104.8530 72° East 506 582 39,000  Level FlightAware ADS-B
11:19AM 37.6409 -104.7650 71° East 506 582 39,000  Level FlightAware ADS-B
11:20AM 37.6643 -104.6770 72° East 507 583 39,000  Level FlightAware ADS-B
11:20AM 37.6915 -104.5730 72° East 506 582 39,000  Level FlightAware ADS-B
11:21AM 37.7289 -104.4310 72° East 504 580 39,000  Level FlightAware ADS-B
11:22AM 37.7517 -104.3440 72° East 506 582 39,000  Level FlightAware ADS-B
11:22AM 37.7738 -104.2590 72° East 504 580 39,000  Level FlightAware ADS-B
11:23AM 37.7959 -104.1740 72° East 508 585 39,000  Level FlightAware ADS-B
11:23AM 37.8181 -104.0890 72° East 508 585 39,000  Level FlightAware ADS-B
11:24AM 37.8422 -103.9950 72° East 510 587 39,000  Level FlightAware ADS-B
11:24AM 37.8642 -103.9090 72° East 511 588 39,000  Level FlightAware ADS-B
11:25AM 37.8863 -103.8230 72° East 512 589 39,000  Level FlightAware ADS-B
11:25AM 37.9084 -103.7370 72° East 514 592 39,000  Level FlightAware ADS-B
11:26AM 37.9305 -103.6500 72° East 515 593 39,000  Level FlightAware ADS-B
11:26AM 37.9529 -103.5610 72° East 515 593 39,000  Level FlightAware ADS-B
11:27AM 37.9747 -103.4750 72° East 516 594 39,000  Level FlightAware ADS-B
11:27AM 37.9967 -103.3870 72° East 516 594 39,000  Level FlightAware ADS-B
11:28AM 38.0188 -103.2990 72° East 517 595 39,000  Level FlightAware ADS-B
11:28AM 38.0407 -103.2110 72° East 517 595 39,000  Level FlightAware ADS-B
11:29AM 38.0628 -103.1220 73° East 516 594 39,000  Level FlightAware ADS-B
11:29AM 38.0846 -103.0340 73° East 513 590 39,000  Level FlightAware ADS-B
11:30AM 38.1059 -102.9480 73° East 511 588 39,000  Level FlightAware ADS-B
11:30AM 38.1274 -102.8610 73° East 510 587 39,000  Level FlightAware ADS-B
11:31AM 38.1486 -102.7740 73° East 510 587 39,000  Level FlightAware ADS-B
11:31AM 38.1699 -102.6870 73° East 509 586 39,000  Level FlightAware ADS-B
11:32AM 38.1915 -102.5990 73° East 509 586 39,000  Level FlightAware ADS-B
11:32AM 38.2125 -102.5130 73° East 508 585 39,000  Level FlightAware ADS-B
11:33AM 38.2336 -102.4260 73° East 508 585 39,000  Level FlightAware ADS-B
11:33AM 38.2542 -102.3400 73° East 509 586 39,000  Level FlightAware ADS-B
11:34AM 38.2749 -102.2540 73° East 509 586 39,000  Level FlightAware ADS-B
11:34AM 38.2958 -102.1670 73° East 509 586 39,000  Level FlightAware ADS-B
11:35AM 38.3164 -102.0800 73° East 510 587 39,000  Level FlightAware ADS-B
11:35AM 38.3369 -101.9930 73° East 511 588 39,000  Level FlightAware ADS-B
11:36AM 38.3595 -101.8980 73° East 512 589 39,000  Level FlightAware ADS-B
11:37AM 38.3809 -101.8070 73° East 512 589 39,000  Level FlightAware ADS-B
11:37AM 38.4026 -101.7140 73° East 512 589 39,000  Level FlightAware ADS-B
11:38AM 38.4234 -101.6260 74° East 513 590 39,000  Level FlightAware ADS-B
11:38AM 38.4494 -101.5119 73° East 512 589 39,000  Level Denver Center
11:39AM 38.4886 -101.3453 74° East 511 588 39,000  Level Denver Center
11:40AM 38.5328 -101.1511 74° East 510 587 39,000  Level Denver Center
11:42AM 38.5711 -100.9847 74° East 509 586 39,000  Level Denver Center
11:43AM 38.6147 -100.7914 74° East 506 582 39,000  Level Denver Center
11:44AM 38.6522 -100.6253 74° East 506 582 39,000  Level Denver Center
11:45AM 38.6956 -100.4300 74° East 508 585 39,000  Level Denver Center
11:46AM 38.7322 -100.2625 74° East 510 587 39,000  Level Denver Center
11:47AM 38.7750 -100.0669 75° East 509 586 39,000  Level Denver Center
11:48AM 38.8108 -99.8986 74° East 510 587 39,000  Level Denver Center
11:49AM 38.8536 -99.7028 72° East 511 588 39,000  Level Denver Center
11:50AM 38.8861 -99.5708 75° East 506 582 39,000  Level Kansas City Center
11:51AM 38.9228 -99.3894 75° East 511 588 39,000  Level Kansas City Center
11:52AM 38.9589 -99.2181 75° East 505 581 39,000  Level Kansas City Center
11:53AM 38.9950 -99.0414 75° East 505 581 39,000  Level Kansas City Center
11:54AM 39.0306 -98.8672 75° East 505 581 39,000  Level Kansas City Center
11:55AM 39.0683 -98.6906 76° East 505 581 39,000  Level Kansas City Center
11:56AM 39.1061 -98.4972 75° East 505 581 39,000  Level Kansas City Center
11:57AM 39.1433 -98.3172 76° East 505 581 39,000  Level Kansas City Center
11:58AM 39.1778 -98.1397 75° East 511 588 39,000  Level Kansas City Center
11:59AM 39.2144 -97.9619 76° East 511 588 39,000  Level Kansas City Center
12:00PM 39.2486 -97.7814 76° East 511 588 39,000  Level Kansas City Center
12:01PM 39.2800 -97.6219 75° East 511 588 39,000  Level Kansas City Center
12:02PM 39.3206 -97.4197 76° East 511 588 39,000  Level Kansas City Center
12:03PM 39.3539 -97.2439 76° East 511 588 39,000  Level Kansas City Center
12:04PM 39.3869 -97.0653 76° East 506 582 39,000  Level Kansas City Center
12:05PM 39.4197 -96.8889 77° East 506 582 39,000  Level Kansas City Center
12:06PM 39.4525 -96.7100 77° East 506 582 39,000  Level Kansas City Center
12:07PM 39.4847 -96.5336 76° East 506 582 39,000  Level Kansas City Center
12:08PM 39.5144 -96.3756 77° East 506 582 39,000  Level Kansas City Center
12:09PM 39.5439 -96.2042 76° East 501 577 39,000  Level Kansas City Center
12:10PM 39.5797 -96.0164 77° East 490 564 39,000  Level Kansas City Center
12:11PM 39.6111 -95.8447 77° East 484 557 39,000  Level Kansas City Center
12:12PM 39.6378 -95.6889 77° East 484 557 39,000  Level Kansas City Center
12:13PM 39.6706 -95.5008 78° East 484 557 39,000  Level Kansas City Center
12:14PM 39.6992 -95.3311 77° East 484 557 39,000  Level Kansas City Center
12:15PM 39.7292 -95.1617 79° East 484 557 39,000  Level Kansas City Center
12:16PM 39.7531 -95.0081 78° East 489 563 39,000  Level Kansas City Center
12:17PM 39.7806 -94.8353 77° East 484 557 39,000  Level Kansas City Center
12:18PM 39.8142 -94.6492 79° East 484 557 39,000  Level Kansas City Center
12:19PM 39.8394 -94.4761 77° East 484 557 39,000  Level Kansas City Center
12:20PM 39.8683 -94.3086 78° East 484 557 39,000  Level Kansas City Center
12:21PM 39.8931 -94.1544 78° East 484 557 39,000  Level Kansas City Center
12:22PM 39.9194 -93.9864 78° East 484 557 39,000  Level Kansas City Center
12:23PM 39.9478 -93.8131 78° East 484 557 39,000  Level Kansas City Center
12:24PM 39.9739 -93.6450 78° East 484 557 39,000  Level Kansas City Center
12:25PM 40.0017 -93.4714 79° East 484 557 39,000  Level Kansas City Center
12:26PM 40.0272 -93.3028 79° East 484 557 39,000  Level Kansas City Center
12:27PM 40.0522 -93.1317 79° East 484 557 39,000  Level Kansas City Center
12:28PM 40.0792 -92.9467 79° East 478 550 39,000  Level Kansas City Center
12:29PM 40.1022 -92.7917 78° East 478 550 39,000  Level Kansas City Center
12:30PM 40.1328 -92.6064 60° Northeast 478 550 39,000  Level Kansas City Center
12:31PM 40.1969 -92.4581 58° Northeast 465 535 39,000  Level Kansas City Center
12:32PM 40.2692 -92.3092 58° Northeast 465 535 39,000  Level Kansas City Center
12:33PM 40.3394 -92.1628 58° Northeast 470 541 39,000  Level Kansas City Center
12:35PM 40.4886 -91.8506 57° Northeast 486 559 39,000  Level Chicago Center
12:36PM 40.5586 -91.7058 59° Northeast 486 559 39,000  Level Chicago Center
12:37PM 40.6283 -91.5522 58° Northeast 486 559 39,000  Level Chicago Center
12:38PM 40.6997 -91.4039 66° East 481 554 39,000  Level Chicago Center
12:39PM 40.7525 -91.2467 75° East 475 547 39,000  Level Chicago Center
12:40PM 40.7864 -91.0803 73° East 470 541 39,000  Level Chicago Center
12:41PM 40.8244 -90.9111 77° East 470 541 39,000  Level Chicago Center
12:42PM 40.8558 -90.7361 74° East 470 541 39,000  Level Chicago Center
12:43PM 40.8911 -90.5694 75° East 470 541 39,000  Level Chicago Center
12:44PM 40.9242 -90.3997 75° East 470 541 39,000  Level Chicago Center
12:45PM 40.9544 -90.2489 75° East 470 541 39,000  Level Chicago Center
12:47PM 41.0214 -89.9058 76° East 470 541 39,000  Level Chicago Center
12:48PM 41.0533 -89.7325 76° East 470 541 39,000  Level Chicago Center
12:49PM 41.0850 -89.5592 76° East 476 548 39,000  Level Chicago Center
12:50PM 41.1164 -89.3858 76° East 476 548 39,000  Level Chicago Center
12:51PM 41.1497 -89.2092 78° East 482 555 39,000  Level Chicago Center
12:52PM 41.1806 -89.0217 76° East 477 549 39,000  Level Chicago Center
12:53PM 41.2133 -88.8503 76° East 477 549 39,000  Level Chicago Center
12:54PM 41.2458 -88.6733 77° East 477 549 39,000  Level Chicago Center
12:55PM 41.2758 -88.4989 77° East 477 549 39,000  Level Chicago Center
12:56PM 41.3058 -88.3244 77° East 477 549 39,000  Level Chicago Center
12:57PM 41.3372 -88.1469 76° East 477 549 39,000  Level Chicago Center
12:58PM 41.3667 -87.9858 78° East 489 563 39,000  Level Chicago Center
12:59PM 41.3958 -87.8053 77° East 494 568 39,000  Level Chicago Center
01:00PM 41.4267 -87.6275 77° East 489 563 39,000  Level Chicago Center
01:01PM 41.4572 -87.4492 77° East 489 563 39,000  Level Chicago Center
01:02PM 41.4875 -87.2708 78° East 489 563 39,000 -660 Level Chicago Center
01:03PM 41.5153 -87.0897 77° East 489 563 37,700 -1,560 Descending Chicago Center
01:04PM 41.5450 -86.9139 77° East 489 563 35,900 -1,380 Descending Chicago Center
01:05PM 41.5764 -86.7350 79° East 489 563 35,000 -480 Descending Chicago Center
01:06PM 41.6033 -86.5506 78° East 489 563 35,000  Level Chicago Center
01:07PM 41.6322 -86.3717 79° East 489 563 35,000  Level Chicago Center
01:08PM 41.6622 -86.1728 79° East 489 563 35,000  Level Chicago Center
01:09PM 41.6903 -85.9850 79° East 494 568 35,000  Level Chicago Center
01:10PM 41.7161 -85.8056 79° East 494 568 35,000 -60 Level Chicago Center
01:11PM 41.7436 -85.6233 78° East 487 560 34,900 -540 Descending Chicago Center
01:12PM 41.7711 -85.4461 82° East 487 560 34,000 -960 Descending Chicago Center
01:13PM 41.7850 -85.3181 80° East 514 592 33,300 -600 Descending Cleveland Center
01:14PM 41.8092 -85.1358 78° East 528 608 33,000 -180 Descending Cleveland Center
01:15PM 41.8372 -84.9508 77° East 505 581 33,000  Level Cleveland Center
01:16PM 41.8689 -84.7717 81° East 498 573 33,000  Level Cleveland Center
01:17PM 41.8900 -84.5889 79° East 498 573 33,000 -60 Level Cleveland Center
01:18PM 41.9169 -84.4064 79° East 503 579 32,900 -660 Descending Cleveland Center
01:19PM 41.9442 -84.2097 80° East 497 572 31,700 -2,400 Descending Cleveland Center
01:20PM 41.9686 -84.0269 80° East 497 572 28,200 -2,460 Descending Cleveland Center
01:21PM 41.9928 -83.8408 79° East 502 578 26,800 -1,200 Descending Cleveland Center
01:22PM 42.0189 -83.6522 80° East 508 585 25,800 -960 Descending Cleveland Center
01:23PM 42.0400 -83.4853 92° East 508 585 24,900 -1,020 Descending Cleveland Center
01:24PM 42.0342 -83.2978 98° East 498 573 23,800 -1,200 Descending Cleveland Center
01:25PM 42.0136 -83.1011 98° East 493 567 22,600 -1,620 Descending Cleveland Center
01:26PM 41.9944 -82.9244 98° East 481 554 20,600 -1,980 Descending Cleveland Center
01:26PM 41.9786 -82.7703 96° East 458 527 18,800 -1,980 Descending Cleveland Center
01:27PM 41.9667 -82.6303 107° East 446 513 17,200 -2,460 Descending Cleveland Center
01:29PM 41.9239 -82.4447 113° Southeast 432 497 13,800 -2,700 Descending Cleveland Center
01:29PM 41.8883 -82.3347 113° Southeast 413 475 11,800 -1,980 Descending Cleveland Center
01:31PM 41.8383 -82.1744 142° Southeast 386 444 9,900 -900 Descending Cleveland Center
01:31PM 41.7808 -82.1147 147° Southeast 335 386 10,000  Climbing Cleveland Center
01:32PM 41.7025 -82.0461 146° Southeast 325 374 10,000 -120 Level Cleveland Center
01:33PM 41.6222 -81.9747 146° Southeast 322 371 9,800 -540 Descending Cleveland Center
01:34PM 41.5622 -81.9208 169° South 287 330 9,000 -1,320 Descending Cleveland Center
01:35PM 41.4894 -81.9025 211° Southwest 283 326 7,300 -1,620 Descending Cleveland Center
01:36PM 41.4181 -81.9592 229° Southwest 286 329 5,600 -1,380 Descending Cleveland Center
01:37PM 41.3692 -82.0331 200° South 268 308 4,400 -900 Descending Cleveland Center
01:39PM 41.3106 -82.0619 200° South 215 247 3,700 -660 Descending Cleveland Center